Time;durP1;ratioP1;P1;durP2;ratioP2;P2;SDS_P1;SDS_P2;PMS_P1;PMS_P2;Temp;Humidity;BMP_temperature;BMP_pressure;BME280_temperature;BME280_humidity;BME280_pressure;Samples;Min_cycle;Max_cycle;Signal;HPM_P1;HPM_P2
2022/05/26 00:01:12;;;;;;;7.75;1.27;;;21.60;99.90;;;;;;5014678;28;20042;-53
2022/05/26 00:03:40;;;;;;;6.35;1.60;;;21.60;99.90;;;;;;5013009;28;20088;-52
2022/05/26 00:06:08;;;;;;;10.23;2.30;;;21.60;99.90;;;;;;5014240;28;20048;-52
2022/05/26 00:08:36;;;;;;;9.85;1.73;;;21.60;99.90;;;;;;5014102;28;20037;-52
2022/05/26 00:11:02;;;;;;;;;;;21.60;99.90;;;;;;5014747;28;20475;-53
2022/05/26 00:13:28;;;;;;;7.05;1.92;;;21.60;99.90;;;;;;5014386;28;19983;-52
2022/05/26 00:15:54;;;;;;;9.32;2.05;;;21.60;99.90;;;;;;5014158;28;20022;-53
2022/05/26 00:18:20;;;;;;;5.00;2.00;;;21.60;99.90;;;;;;5014182;28;20092;-53
2022/05/26 00:20:46;;;;;;;19.65;3.17;;;21.60;99.90;;;;;;5014140;28;20283;-52
2022/05/26 00:23:11;;;;;;;7.90;1.80;;;21.60;99.90;;;;;;5013922;28;20060;-53
2022/05/26 00:25:37;;;;;;;9.35;2.08;;;21.60;99.90;;;;;;5013879;28;20025;-53
2022/05/26 00:28:03;;;;;;;8.13;1.90;;;21.60;99.90;;;;;;5013655;28;20474;-52
2022/05/26 00:30:29;;;;;;;5.32;1.38;;;21.60;99.90;;;;;;5013907;28;20029;-52
2022/05/26 00:32:56;;;;;;;4.40;1.60;;;21.60;99.90;;;;;;5013706;28;20025;-53
2022/05/26 00:35:22;;;;;;;11.03;2.43;;;21.60;99.90;;;;;;5012740;28;20026;-53
2022/05/26 00:37:48;;;;;;;7.85;1.85;;;21.60;99.90;;;;;;5013770;28;20024;-53
2022/05/26 00:40:15;;;;;;;8.25;2.35;;;21.60;99.90;;;;;;5013746;28;20037;-52
2022/05/26 00:42:41;;;;;;;8.52;2.45;;;21.60;99.90;;;;;;5013744;28;20034;-53
2022/05/26 00:45:08;;;;;;;5.78;2.30;;;21.60;99.90;;;;;;5013469;28;20033;-53
2022/05/26 00:47:41;;;;;;;9.98;1.75;;;21.60;99.90;;;;;;5013493;28;20157;-53
2022/05/26 00:50:19;;;;;;;12.25;1.77;;;21.60;99.90;;;;;;5013515;28;20040;-52
2022/05/26 00:53:25;;;;;;;7.50;1.88;;;21.50;99.90;;;;;;5013286;28;20493;-53
2022/05/26 00:56:00;;;;;;;11.77;2.38;;;21.50;99.90;;;;;;4969731;28;20045;-52
2022/05/26 00:58:31;;;;;;;8.18;2.25;;;21.50;99.90;;;;;;5013223;28;20105;-54
2022/05/26 01:01:00;;;;;;;9.02;1.92;;;21.50;99.90;;;;;;5011833;23;20061;-63
2022/05/26 01:03:31;;;;;;;11.10;2.00;;;21.50;99.90;;;;;;4993876;28;20027;-63
2022/05/26 01:05:59;;;;;;;8.13;2.50;;;21.50;99.90;;;;;;4992565;28;20080;-62
2022/05/26 01:08:41;;;;;;;11.13;2.35;;;21.40;99.90;;;;;;4993421;28;20547;-62
2022/05/26 01:11:07;;;;;;;10.30;2.30;;;21.50;99.90;;;;;;4993424;28;20031;-63
2022/05/26 01:13:59;;;;;;;10.83;2.13;;;21.50;99.90;;;;;;4993643;28;20030;-63
2022/05/26 01:16:58;;;;;;;14.07;3.17;;;21.50;99.90;;;;;;4993197;28;20268;-62
2022/05/26 01:19:46;;;;;;;13.80;2.78;;;21.40;99.90;;;;;;4993373;28;20486;-63
2022/05/26 01:22:50;;;;;;;8.07;1.98;;;21.40;99.90;;;;;;4993366;28;20110;-63
2022/05/26 01:25:38;;;;;;;8.90;2.88;;;21.40;99.90;;;;;;4982575;28;20035;-63
2022/05/26 01:28:07;;;;;;;8.60;2.30;;;21.40;99.90;;;;;;4993565;28;20038;-63
2022/05/26 01:30:38;;;;;;;10.77;2.70;;;21.40;99.90;;;;;;4993369;28;20117;-63
2022/05/26 01:33:07;;;;;;;10.07;2.10;;;21.40;99.90;;;;;;4992033;28;20505;-63
2022/05/26 01:35:44;;;;;;;10.95;2.90;;;21.40;99.90;;;;;;4993220;28;20077;-64
2022/05/26 01:38:29;;;;;;;9.05;2.70;;;21.30;99.90;;;;;;4992927;28;20034;-63
2022/05/26 01:41:17;;;;;;;9.73;2.80;;;21.30;99.90;;;;;;4993020;28;20046;-63
2022/05/26 01:44:00;;;;;;;14.00;2.47;;;21.30;99.90;;;;;;4993030;28;20553;-63
2022/05/26 01:46:36;;;;;;;11.68;2.88;;;21.30;99.90;;;;;;4992796;28;20105;-63
2022/05/26 01:49:28;;;;;;;10.48;2.10;;;21.30;99.90;;;;;;4992882;28;20034;-63
2022/05/26 01:52:12;;;;;;;11.38;2.15;;;21.30;99.90;;;;;;4992869;28;20105;-63
2022/05/26 01:55:05;;;;;;;9.15;2.78;;;21.30;99.90;;;;;;4992752;28;20046;-63
2022/05/26 01:57:51;;;;;;;9.40;2.22;;;21.30;99.90;;;;;;4991356;28;20022;-62
2022/05/26 02:00:19;;;;;;;20.75;3.45;;;21.30;99.90;;;;;;4993077;28;20575;-63
2022/05/26 02:02:54;;;;;;;6.97;2.58;;;21.30;99.90;;;;;;4992585;28;20030;-63
2022/05/26 02:05:27;;;;;;;4.57;1.85;;;21.30;99.90;;;;;;4992597;28;20033;-61
2022/05/26 02:08:12;;;;;;;6.63;1.90;;;21.30;99.90;;;;;;4992346;28;20061;-60
2022/05/26 02:10:55;;;;;;;7.75;2.28;;;21.30;99.90;;;;;;4992627;28;20023;-61
2022/05/26 02:13:45;;;;;;;9.93;2.50;;;21.30;99.90;;;;;;4991129;28;20027;-61
2022/05/26 02:16:32;;;;;;;7.82;2.55;;;21.30;99.90;;;;;;4991856;28;20050;-61
2022/05/26 02:19:16;;;;;;;10.32;2.58;;;21.30;99.90;;;;;;4992543;28;20022;-61
2022/05/26 02:22:03;;;;;;;8.82;2.33;;;21.30;99.90;;;;;;4992412;28;20474;-61
2022/05/26 02:25:04;;;;;;;11.35;2.15;;;21.20;99.90;;;;;;4991050;28;20026;-62
2022/05/26 02:27:32;;;;;;;8.23;2.13;;;21.20;99.90;;;;;;4989230;28;20049;-61
2022/05/26 02:30:00;;;;;;;13.50;2.42;;;21.20;99.90;;;;;;4992212;28;20375;-60
2022/05/26 02:32:36;;;;;;;7.28;1.85;;;21.20;99.90;;;;;;4992229;28;20042;-61
2022/05/26 02:35:05;;;;;;;9.25;2.13;;;21.20;99.90;;;;;;4992147;28;20481;-62
2022/05/26 02:37:33;;;;;;;6.57;2.90;;;21.20;99.90;;;;;;4992161;28;20026;-61
2022/05/26 02:39:59;;;;;;;10.63;2.70;;;21.10;99.90;;;;;;4992067;28;20099;-61
2022/05/26 02:42:25;;;;;;;7.13;3.15;;;21.00;99.90;;;;;;4992102;28;20030;-61
2022/05/26 02:44:52;;;;;;;10.93;2.45;;;21.00;99.90;;;;;;4992062;28;20109;-61
2022/05/26 02:47:48;;;;;;;10.07;3.42;;;21.00;99.90;;;;;;4990708;28;20049;-62
2022/05/26 02:50:32;;;;;;;8.00;2.33;;;21.10;99.90;;;;;;4991969;28;20042;-61
2022/05/26 02:53:18;;;;;;;10.77;2.08;;;21.20;99.90;;;;;;4992093;28;20428;-62
2022/05/26 02:56:01;;;;;;;10.98;2.55;;;21.30;99.90;;;;;;4989371;28;20032;-62
2022/05/26 02:58:52;;;;;;;7.03;1.90;;;21.30;99.90;;;;;;4984687;28;20393;-62
2022/05/26 03:01:32;;;;;;;6.78;1.80;;;21.40;99.90;;;;;;5006853;23;20077;-54
2022/05/26 03:04:22;;;;;;;6.95;1.85;;;21.40;99.90;;;;;;4992510;28;20038;-54
2022/05/26 03:06:56;;;;;;;10.23;2.53;;;21.40;99.90;;;;;;4994144;28;20026;-54
2022/05/26 03:09:23;;;;;;;5.63;2.28;;;21.40;99.90;;;;;;4995674;28;20069;-54
2022/05/26 03:11:54;;;;;;;9.25;2.72;;;21.40;99.90;;;;;;4994806;28;20500;-54
2022/05/26 03:14:21;;;;;;;6.57;2.10;;;21.40;99.90;;;;;;4994917;28;20038;-55
2022/05/26 03:16:47;;;;;;;7.38;1.98;;;21.40;99.90;;;;;;4995037;28;20054;-54
2022/05/26 03:19:13;;;;;;;6.30;1.65;;;21.40;99.90;;;;;;4995708;28;20405;-54
2022/05/26 03:21:40;;;;;;;7.80;1.73;;;21.40;99.90;;;;;;4995824;28;20030;-54
2022/05/26 03:24:06;;;;;;;7.38;1.70;;;21.40;99.90;;;;;;4995687;28;20026;-54
2022/05/26 03:26:32;;;;;;;9.27;1.88;;;21.40;99.90;;;;;;4995549;28;20030;-55
2022/05/26 03:28:58;;;;;;;8.38;2.50;;;21.40;99.90;;;;;;4995348;28;20041;-55
2022/05/26 03:31:24;;;;;;;6.82;2.03;;;21.40;99.90;;;;;;4995510;28;20058;-54
2022/05/26 03:42:09;;;;;;;8.77;1.70;;;21.40;99.90;;;;;;4995498;28;20033;-55
2022/05/26 03:44:35;;;;;;;5.05;1.50;;;21.40;99.90;;;;;;4995085;28;20026;-54
2022/05/26 03:47:02;;;;;;;4.72;1.63;;;21.40;99.90;;;;;;4995245;28;20110;-55
2022/05/26 03:49:28;;;;;;;8.23;1.57;;;21.40;99.90;;;;;;4994978;28;20497;-55
2022/05/26 03:51:54;;;;;;;11.38;2.65;;;21.40;99.90;;;;;;4995091;28;20264;-55
2022/05/26 03:54:19;;;;;;;7.93;1.95;;;21.40;99.90;;;;;;4995207;28;20022;-55
2022/05/26 03:56:45;;;;;;;6.88;1.70;;;21.40;99.90;;;;;;4994925;28;20478;-54
2022/05/26 04:01:44;;;;;;;11.35;1.80;;;21.30;99.90;;;;;;4993806;28;20039;-61
2022/05/26 04:04:09;;;;;;;6.60;1.80;;;21.30;99.90;;;;;;4994883;28;20046;-60
2022/05/26 04:06:36;;;;;;;10.15;2.83;;;21.30;99.90;;;;;;4994793;28;20033;-61
2022/05/26 04:09:03;;;;;;;6.70;1.73;;;21.30;99.90;;;;;;4993747;28;20038;-61
2022/05/26 04:11:29;;;;;;;11.88;2.30;;;21.30;99.90;;;;;;4994262;28;20034;-61
2022/05/26 04:13:55;;;;;;;6.05;1.60;;;21.30;99.90;;;;;;4994648;28;20022;-60
2022/05/26 04:16:21;;;;;;;2.80;1.50;;;21.30;99.90;;;;;;4994496;28;20021;-61
2022/05/26 04:18:47;;;;;;;9.23;1.77;;;21.30;99.90;;;;;;4994413;28;20040;-59
2022/05/26 04:21:14;;;;;;;5.35;1.85;;;21.20;99.90;;;;;;4994585;28;20264;-58
2022/05/26 04:23:40;;;;;;;5.30;2.30;;;21.30;99.90;;;;;;4994477;28;20026;-60
2022/05/26 04:26:08;;;;;;;8.20;1.88;;;21.30;99.90;;;;;;4994467;28;20098;-61
2022/05/26 04:28:34;;;;;;;4.22;1.85;;;21.30;99.90;;;;;;4994387;28;20027;-60
2022/05/26 04:31:01;;;;;;;7.15;1.50;;;21.30;99.90;;;;;;4994410;28;20036;-61
2022/05/26 04:33:27;;;;;;;3.80;1.27;;;21.30;99.90;;;;;;4994333;28;20022;-59
2022/05/26 04:35:53;;;;;;;11.50;2.72;;;21.30;99.90;;;;;;4994195;28;20683;-61
2022/05/26 04:38:19;;;;;;;7.70;2.00;;;21.30;99.90;;;;;;4994085;28;20030;-61
2022/05/26 04:40:46;;;;;;;7.07;2.08;;;21.30;99.90;;;;;;4993035;28;20565;-61
2022/05/26 04:43:13;;;;;;;4.75;1.73;;;21.30;99.90;;;;;;4994160;28;20466;-61
2022/05/26 04:45:39;;;;;;;9.98;2.45;;;21.30;99.90;;;;;;4994035;28;20042;-61
2022/05/26 04:48:05;;;;;;;8.50;2.80;;;21.30;99.90;;;;;;4993865;28;20030;-62
2022/05/26 04:50:31;;;;;;;5.13;1.75;;;21.30;99.90;;;;;;4993832;28;20035;-61
2022/05/26 04:52:57;;;;;;;13.02;2.40;;;21.30;99.90;;;;;;4993930;28;20030;-62
2022/05/26 04:55:23;;;;;;;7.80;2.88;;;21.30;99.90;;;;;;4993834;28;20033;-62
2022/05/26 04:57:52;;;;;;;7.95;1.75;;;21.30;99.90;;;;;;4993808;28;20022;-61
2022/05/26 05:00:18;;;;;;;4.85;1.50;;;21.20;99.90;;;;;;4993560;28;20113;-62
2022/05/26 05:02:44;;;;;;;3.53;1.50;;;21.20;99.90;;;;;;4993806;28;20033;-61
2022/05/26 05:05:11;;;;;;;7.18;2.03;;;21.20;99.90;;;;;;4993735;28;20026;-62
2022/05/26 05:07:37;;;;;;;4.25;1.60;;;21.20;99.90;;;;;;4993587;28;20034;-62
2022/05/26 05:10:04;;;;;;;15.43;1.98;;;21.20;99.90;;;;;;4993480;28;20394;-63
2022/05/26 05:12:30;;;;;;;6.63;2.05;;;21.20;99.90;;;;;;4993898;28;20030;-61
2022/05/26 05:14:56;;;;;;;6.43;1.73;;;21.20;99.90;;;;;;4993450;28;20113;-62
2022/05/26 05:17:24;;;;;;;6.63;2.30;;;21.20;99.90;;;;;;4993288;28;20054;-62
2022/05/26 05:19:50;;;;;;;7.03;1.45;;;21.20;99.90;;;;;;4993456;28;20026;-62
2022/05/26 05:22:53;;;;;;;3.85;2.05;;;21.20;99.90;;;;;;4993028;28;20493;-61
2022/05/26 05:25:23;;;;;;;5.40;1.52;;;21.20;99.90;;;;;;4980291;28;20042;-62
2022/05/26 05:28:05;;;;;;;10.18;2.13;;;21.20;99.90;;;;;;4993146;28;20026;-62
2022/05/26 05:30:31;;;;;;;6.43;1.80;;;21.20;99.90;;;;;;4993135;28;20058;-62
2022/05/26 05:33:05;;;;;;;4.32;1.60;;;21.10;99.90;;;;;;4993085;28;20497;-61
2022/05/26 05:35:57;;;;;;;5.30;1.80;;;21.20;99.90;;;;;;4992950;28;20133;-62
2022/05/26 05:38:25;;;;;;;5.75;1.63;;;21.20;99.90;;;;;;4993234;28;20040;-62
2022/05/26 05:40:51;;;;;;;;;;;21.20;99.90;;;;;;4993381;28;20022;-62
2022/05/26 05:43:17;;;;;;;3.60;1.40;;;21.20;99.90;;;;;;4992973;28;19906;-62
2022/05/26 05:45:42;;;;;;;5.32;1.67;;;21.30;99.90;;;;;;4992733;28;20378;-62
2022/05/26 05:48:09;;;;;;;7.13;1.80;;;21.30;99.90;;;;;;4992808;28;20026;-63
2022/05/26 05:50:34;;;;;;;4.22;1.17;;;21.30;99.90;;;;;;4992616;28;20042;-62
2022/05/26 05:53:00;;;;;;;5.90;1.98;;;21.30;99.90;;;;;;4992894;28;20385;-62
2022/05/26 05:55:26;;;;;;;8.88;1.55;;;21.30;99.90;;;;;;4992682;28;20038;-62
2022/05/26 05:57:52;;;;;;;7.28;1.67;;;21.30;99.90;;;;;;4992655;28;20473;-62
2022/05/26 06:00:18;;;;;;;4.95;2.13;;;21.30;99.90;;;;;;4992561;28;20038;-62
2022/05/26 06:02:44;;;;;;;9.52;5.07;;;21.40;99.90;;;;;;4992642;28;20037;-62
2022/05/26 06:05:10;;;;;;;9.00;2.58;;;21.40;99.90;;;;;;4992344;28;20026;-62
2022/05/26 06:07:39;;;;;;;5.97;1.60;;;21.40;99.90;;;;;;4992469;28;20470;-62
2022/05/26 06:10:11;;;;;;;5.93;1.70;;;21.40;99.90;;;;;;4992317;28;20117;-62
2022/05/26 06:12:38;;;;;;;3.33;1.45;;;21.40;99.90;;;;;;4992363;28;20057;-61
2022/05/26 06:15:05;;;;;;;3.78;1.60;;;21.50;99.90;;;;;;4991091;28;20026;-61
2022/05/26 06:17:30;;;;;;;8.67;1.50;;;21.40;99.90;;;;;;4992218;28;20057;-61
2022/05/26 06:19:56;;;;;;;6.15;1.70;;;21.50;99.90;;;;;;4992338;28;20090;-61
2022/05/26 06:22:23;;;;;;;6.35;1.30;;;21.50;99.90;;;;;;4992196;28;20025;-61
2022/05/26 06:24:49;;;;;;;5.65;2.03;;;21.60;99.90;;;;;;4992399;28;20030;-61
2022/05/26 06:30:05;;;;;;;6.68;1.50;;;21.60;99.90;;;;;;4992395;28;20073;-61
2022/05/26 06:38:18;;;;;;;5.47;1.20;;;21.70;99.90;;;;;;4992538;28;20085;-61
2022/05/26 06:40:44;;;;;;;4.65;1.20;;;21.70;99.90;;;;;;4991907;28;20080;-61
2022/05/26 06:43:10;;;;;;;3.33;1.77;;;21.70;99.90;;;;;;4991964;28;20026;-61
2022/05/26 06:45:36;;;;;;;7.95;1.05;;;21.80;99.90;;;;;;4991795;28;20027;-61
2022/05/26 06:48:03;;;;;;;5.47;1.20;;;21.80;99.90;;;;;;4991671;28;20034;-60
2022/05/26 06:50:29;;;;;;;5.03;1.38;;;21.90;99.90;;;;;;4991851;28;20023;-61
2022/05/26 06:52:54;;;;;;;8.02;3.78;;;21.90;99.90;;;;;;4991671;28;20041;-62
2022/05/26 06:55:21;;;;;;;4.88;1.98;;;21.90;99.90;;;;;;4991906;28;20050;-61
2022/05/26 06:57:46;;;;;;;7.35;2.80;;;21.90;99.90;;;;;;4991562;28;20030;-61
2022/05/26 07:00:15;;;;;;;3.40;1.55;;;22.00;99.90;;;;;;4991573;28;20371;-61
2022/05/26 07:02:41;;;;;;;3.83;1.67;;;22.00;99.90;;;;;;4991472;28;20042;-61
2022/05/26 07:05:08;;;;;;;8.18;1.77;;;22.10;99.90;;;;;;4991749;28;20026;-61
2022/05/26 07:07:35;;;;;;;5.85;2.90;;;22.10;99.90;;;;;;4991545;28;20023;-61
2022/05/26 07:10:02;;;;;;;4.15;1.40;;;22.20;99.90;;;;;;4991547;28;20042;-61
2022/05/26 07:12:28;;;;;;;9.32;3.63;;;22.20;99.90;;;;;;4991571;28;20023;-61
2022/05/26 07:14:54;;;;;;;7.50;3.85;;;22.30;99.90;;;;;;4991901;28;20125;-61
2022/05/26 07:17:20;;;;;;;8.23;1.80;;;22.30;99.90;;;;;;4990477;28;20026;-61
2022/05/26 07:19:46;;;;;;;2.05;1.30;;;22.40;99.90;;;;;;4991658;28;20528;-61
2022/05/26 07:22:13;;;;;;;3.58;1.52;;;22.40;99.90;;;;;;4991624;28;20038;-61
2022/05/26 07:24:40;;;;;;;7.80;2.60;;;22.50;99.90;;;;;;4991569;28;20481;-61
2022/05/26 07:27:07;;;;;;;5.05;2.00;;;22.50;99.90;;;;;;4991542;28;20128;-61
2022/05/26 07:29:33;;;;;;;9.35;2.88;;;22.50;99.90;;;;;;4990189;28;20034;-61
2022/05/26 07:32:00;;;;;;;4.07;1.80;;;22.60;99.90;;;;;;4991383;28;20462;-61
2022/05/26 07:34:26;;;;;;;9.70;2.13;;;22.60;99.90;;;;;;4991607;28;20050;-61
2022/05/26 07:42:38;;;;;;;4.55;1.38;;;22.70;99.90;;;;;;4984458;28;20452;-62
2022/05/26 07:45:08;;;;;;;3.75;2.50;;;22.80;99.90;;;;;;4994034;28;20033;-62
2022/05/26 07:47:36;;;;;;;5.35;1.45;;;22.80;99.90;;;;;;4995039;28;20109;-61
2022/05/26 07:50:03;;;;;;;4.95;2.65;;;22.90;99.90;;;;;;4995022;28;20515;-62
2022/05/26 07:52:29;;;;;;;10.90;3.70;;;22.90;99.90;;;;;;4995146;28;20397;-61
2022/05/26 07:54:55;;;;;;;9.88;3.00;;;23.00;99.90;;;;;;4995119;28;20038;-62
2022/05/26 07:57:25;;;;;;;6.75;3.03;;;23.00;99.90;;;;;;4995015;28;20066;-60
2022/05/26 07:59:52;;;;;;;4.90;2.13;;;23.00;99.90;;;;;;4994732;28;20030;-61
2022/05/26 08:02:19;;;;;;;5.78;4.15;;;23.10;99.90;;;;;;4994778;28;20026;-60
2022/05/26 08:04:45;;;;;;;4.60;1.45;;;23.10;99.90;;;;;;4994728;28;20114;-61
2022/05/26 08:07:12;;;;;;;3.80;1.85;;;23.20;99.90;;;;;;4993421;28;20109;-61
2022/05/26 08:09:38;;;;;;;3.22;1.33;;;23.20;99.90;;;;;;4994609;28;20394;-61
2022/05/26 08:12:08;;;;;;;1.30;0.95;;;23.30;99.90;;;;;;4993332;28;20038;-60
2022/05/26 08:14:35;;;;;;;5.18;1.25;;;23.20;99.90;;;;;;4994560;28;20038;-61
2022/05/26 08:17:01;;;;;;;6.05;1.60;;;23.30;99.90;;;;;;4994555;28;20077;-61
2022/05/26 08:19:28;;;;;;;7.20;2.75;;;23.30;99.90;;;;;;4994603;28;20026;-61
2022/05/26 08:21:54;;;;;;;5.18;1.33;;;23.40;99.90;;;;;;4994671;28;20472;-61
2022/05/26 08:24:19;;;;;;;5.70;1.30;;;23.40;99.90;;;;;;4994532;28;20114;-61
2022/05/26 08:26:48;;;;;;;2.65;1.30;;;23.50;99.90;;;;;;4994353;28;20022;-61
2022/05/26 08:29:14;;;;;;;5.00;0.90;;;23.50;99.90;;;;;;4994268;28;20034;-61
2022/05/26 08:31:40;;;;;;;3.33;1.23;;;23.50;99.90;;;;;;4993053;28;20031;-61
2022/05/26 08:34:06;;;;;;;2.03;1.00;;;23.50;99.90;;;;;;4994345;28;20026;-61
2022/05/26 08:36:34;;;;;;;1.80;0.82;;;23.60;99.90;;;;;;4994352;28;20402;-60
2022/05/26 08:38:59;;;;;;;;;;;23.60;99.90;;;;;;4994613;28;20042;-61
2022/05/26 08:41:42;;;;;;;3.15;0.70;;;23.70;99.90;;;;;;4994473;28;19906;-61
2022/05/26 08:44:31;;;;;;;1.77;0.98;;;23.70;99.90;;;;;;4992632;28;20049;-63
2022/05/26 08:47:08;;;;;;;1.92;0.80;;;23.80;99.90;;;;;;4994185;28;20037;-62
2022/05/26 08:49:36;;;;;;;;;;;23.80;99.90;;;;;;4994410;28;20043;-59
2022/05/26 08:52:12;;;;;;;3.65;1.02;;;23.80;99.90;;;;;;4993865;28;19913;-63
2022/05/26 08:54:44;;;;;;;2.38;1.90;;;23.90;99.90;;;;;;4993674;28;20037;-61
2022/05/26 08:57:14;;;;;;;3.88;1.80;;;23.80;99.90;;;;;;4993247;28;20026;-60
2022/05/26 08:59:44;;;;;;;5.13;3.25;;;23.80;99.90;;;;;;4993595;28;20085;-61
2022/05/26 09:02:34;;;;;;;3.47;1.20;;;23.80;99.90;;;;;;4993605;28;20029;-60
2022/05/26 09:05:03;;;;;;;5.35;2.08;;;23.90;99.90;;;;;;4985014;28;20030;-60
2022/05/26 09:13:14;;;;;;;7.78;5.53;;;23.90;99.90;;;;;;4993804;28;20173;-62
2022/05/26 09:15:40;;;;;;;4.18;2.70;;;24.00;99.90;;;;;;4993394;28;20037;-61
2022/05/26 09:18:14;;;;;;;4.13;2.05;;;24.00;99.90;;;;;;4993262;28;20109;-61
2022/05/26 09:20:42;;;;;;;7.05;1.75;;;24.00;99.90;;;;;;4993447;28;20261;-63
2022/05/26 09:23:15;;;;;;;;;;;24.00;99.90;;;;;;4993578;28;20041;-61
2022/05/26 09:25:47;;;;;;;2.80;1.10;;;24.00;99.90;;;;;;4993285;28;19931;-61
2022/05/26 09:28:26;;;;;;;3.90;2.08;;;24.10;99.90;;;;;;4993154;28;20057;-61
2022/05/26 09:30:52;;;;;;;2.53;1.38;;;24.10;99.90;;;;;;4993003;28;20034;-60
2022/05/26 09:33:33;;;;;;;5.38;2.97;;;24.00;99.90;;;;;;4992851;28;20037;-61
2022/05/26 09:36:25;;;;;;;4.90;2.35;;;24.00;99.90;;;;;;4993093;28;20037;-61
2022/05/26 09:38:52;;;;;;;4.03;1.90;;;24.00;99.90;;;;;;4992936;28;20035;-60
2022/05/26 09:41:18;;;;;;;4.25;2.38;;;24.10;99.90;;;;;;4992836;28;20092;-60
2022/05/26 09:43:57;;;;;;;2.45;1.45;;;24.00;99.90;;;;;;4992942;28;20030;-61
2022/05/26 09:46:26;;;;;;;4.53;1.23;;;23.90;99.90;;;;;;4992711;28;20035;-61
2022/05/26 09:49:03;;;;;;;7.22;1.77;;;23.70;99.90;;;;;;4992780;28;20034;-61
2022/05/26 09:51:40;;;;;;;;;;;23.60;99.90;;;;;;4993348;28;20056;-61
2022/05/26 09:54:26;;;;;;;6.00;1.17;;;23.50;99.90;;;;;;4991396;28;20353;-62
2022/05/26 09:56:52;;;;;;;3.80;1.70;;;23.50;99.90;;;;;;4992439;28;20022;-62
2022/05/26 09:59:34;;;;;;;4.50;1.80;;;23.50;99.90;;;;;;4992371;28;20359;-61
2022/05/26 10:02:18;;;;;;;7.63;4.97;;;23.50;99.90;;;;;;4992598;28;20046;-61
2022/05/26 10:04:58;;;;;;;3.15;1.58;;;23.50;99.90;;;;;;4992510;28;20482;-61
2022/05/26 10:07:27;;;;;;;5.60;2.38;;;23.50;99.90;;;;;;4992352;28;20039;-61
2022/05/26 10:10:38;;;;;;;5.90;3.03;;;23.60;99.90;;;;;;4992359;28;20057;-61
2022/05/26 10:13:30;;;;;;;5.70;1.92;;;23.70;99.90;;;;;;4992427;28;20022;-61
2022/05/26 10:16:15;;;;;;;7.50;2.75;;;23.70;99.90;;;;;;4992442;28;20442;-62
2022/05/26 10:19:02;;;;;;;7.55;1.75;;;23.80;99.90;;;;;;4992347;28;20038;-62
2022/05/26 10:21:52;;;;;;;4.95;2.10;;;23.70;99.90;;;;;;4992306;28;20235;-61
2022/05/26 10:24:18;;;;;;;9.75;2.38;;;23.80;99.90;;;;;;4992106;28;20153;-61
2022/05/26 10:27:08;;;;;;;3.28;1.40;;;23.80;99.90;;;;;;4992096;28;20109;-61
2022/05/26 10:29:45;;;;;;;3.05;1.60;;;23.90;99.90;;;;;;4990876;28;20387;-61
2022/05/26 10:32:24;;;;;;;5.25;2.35;;;23.80;99.90;;;;;;4991975;28;20026;-61
2022/05/26 10:35:05;;;;;;;8.23;4.38;;;23.80;99.90;;;;;;4991826;28;20109;-61
2022/05/26 10:37:53;;;;;;;8.07;4.75;;;23.90;99.90;;;;;;4992220;28;20026;-61
2022/05/26 10:40:22;;;;;;;7.15;2.72;;;23.90;99.90;;;;;;4992059;28;20033;-61
2022/05/26 10:42:57;;;;;;;6.20;3.17;;;23.90;99.90;;;;;;4991762;28;20058;-60
2022/05/26 10:45:23;;;;;;;6.85;4.60;;;24.00;99.90;;;;;;4989075;28;20065;-61
2022/05/26 10:47:58;;;;;;;6.00;2.67;;;24.00;99.90;;;;;;4983655;28;20054;-61
2022/05/26 10:50:54;;;;;;;6.65;2.35;;;24.00;99.90;;;;;;4988380;28;20039;-60
2022/05/26 10:53:20;;;;;;;4.60;1.80;;;24.00;99.90;;;;;;4988480;28;20030;-61
2022/05/26 10:55:54;;;;;;;3.50;1.52;;;23.90;99.90;;;;;;4991902;28;20030;-63
2022/05/26 10:58:42;;;;;;;4.13;2.05;;;24.00;99.90;;;;;;4991827;28;20084;-61
2022/05/26 11:01:19;;;;;;;4.85;2.03;;;24.00;99.90;;;;;;4991743;28;20480;-61
2022/05/26 11:03:48;;;;;;;;;;;24.10;99.90;;;;;;4992140;28;20026;-61
2022/05/26 11:06:27;;;;;;;5.68;2.22;;;24.10;99.90;;;;;;4989766;28;19920;-63
2022/05/26 11:08:58;;;;;;;4.35;1.95;;;24.10;99.90;;;;;;4988621;28;20077;-61
2022/05/26 11:12:00;;;;;;;7.25;1.75;;;24.10;99.90;;;;;;4990954;28;20370;-61
2022/05/26 11:17:51;;;;;;;7.32;2.88;;;24.00;99.90;;;;;;4988107;28;20500;-61
2022/05/26 11:20:26;;;;;;;8.48;3.95;;;23.90;99.90;;;;;;4993877;28;20019;-61
2022/05/26 11:22:53;;;;;;;8.40;2.78;;;24.00;99.90;;;;;;4992645;28;20048;-62
2022/05/26 11:25:50;;;;;;;6.55;2.42;;;24.00;99.90;;;;;;4995352;28;20026;-61
2022/05/26 11:28:30;;;;;;;6.72;3.35;;;23.80;99.90;;;;;;4995354;28;20459;-62
2022/05/26 11:37:03;;;;;;;8.32;1.50;;;23.60;99.90;;;;;;4975573;28;20042;-61
2022/05/26 11:39:40;;;;;;;8.43;1.38;;;23.60;99.90;;;;;;4983882;28;20041;-60
2022/05/26 11:42:14;;;;;;;9.52;1.15;;;23.80;99.90;;;;;;4986358;28;20025;-62
2022/05/26 11:45:09;;;;;;;3.20;1.27;;;23.90;99.90;;;;;;4989029;28;20030;-61
2022/05/26 11:47:54;;;;;;;5.70;0.90;;;23.90;99.90;;;;;;4994371;28;20064;-63
2022/05/26 11:50:29;;;;;;;5.90;1.20;;;23.70;99.90;;;;;;4993639;28;20096;-62
2022/05/26 11:52:55;;;;;;;3.40;1.20;;;23.50;99.90;;;;;;4991453;28;20022;-62
2022/05/26 11:55:33;;;;;;;7.82;1.67;;;23.50;99.90;;;;;;4993943;28;20496;-67
2022/05/26 11:58:36;;;;;;;6.40;1.25;;;23.50;99.90;;;;;;4987821;28;20089;-56
2022/05/26 12:01:27;;;;;;;3.72;1.23;;;23.40;99.90;;;;;;4926979;29;20127;-65
2022/05/26 12:04:05;;;;;;;4.93;1.30;;;23.30;99.90;;;;;;4980053;28;20129;-63
2022/05/26 12:06:33;;;;;;;;;;;23.30;99.90;;;;;;4982564;28;20030;-60
2022/05/26 12:09:24;;;;;;;7.75;3.25;;;23.10;99.90;;;;;;4988161;28;19917;-61
2022/05/26 12:12:02;;;;;;;5.63;1.55;;;23.10;99.90;;;;;;4971840;28;20045;-66
2022/05/26 12:14:28;;;;;;;4.43;1.25;;;23.20;99.90;;;;;;4993553;28;20030;-64
2022/05/26 12:17:23;;;;;;;4.18;1.10;;;23.30;99.90;;;;;;4993682;28;20025;-69
2022/05/26 12:19:49;;;;;;;17.98;4.35;;;23.40;99.90;;;;;;4990914;28;20623;-68
2022/05/26 12:22:23;;;;;;;15.60;4.35;;;23.40;99.90;;;;;;4993796;28;20105;-61
2022/05/26 12:25:31;;;;;;;10.60;2.63;;;23.30;99.90;;;;;;4992533;28;20037;-64
2022/05/26 12:28:20;;;;;;;6.00;1.52;;;23.30;99.90;;;;;;4989520;28;20561;-63
2022/05/26 12:30:45;;;;;;;4.13;1.10;;;23.00;99.90;;;;;;4988897;28;20045;-62
2022/05/26 12:33:17;;;;;;;2.35;1.00;;;22.70;99.90;;;;;;4993915;28;20094;-64
2022/05/26 12:35:52;;;;;;;6.10;1.40;;;22.80;99.90;;;;;;4986498;28;20030;-61
2022/05/26 12:38:38;;;;;;;8.00;1.20;;;22.70;99.90;;;;;;4987305;28;20041;-58
2022/05/26 12:41:47;;;;;;;6.65;1.10;;;22.70;99.90;;;;;;4985060;28;20038;-63
2022/05/26 12:44:19;;;;;;;4.75;1.60;;;22.60;99.90;;;;;;4984625;28;20034;-60
2022/05/26 12:47:19;;;;;;;6.22;1.67;;;22.60;99.90;;;;;;5003078;28;20034;-61
2022/05/26 12:50:03;;;;;;;3.33;0.98;;;22.90;99.90;;;;;;4984735;28;20031;-61
2022/05/26 12:52:47;;;;;;;3.15;0.70;;;23.00;99.90;;;;;;4980016;28;20073;-61
2022/05/26 12:55:31;;;;;;;8.10;1.15;;;23.00;99.90;;;;;;4990987;28;20561;-61
2022/05/26 12:58:01;;;;;;;4.03;1.00;;;23.10;99.90;;;;;;4991537;28;20026;-62
2022/05/26 13:00:32;;;;;;;3.17;0.85;;;23.00;99.90;;;;;;4989641;28;20084;-55
2022/05/26 13:03:02;;;;;;;2.50;1.00;;;23.10;99.90;;;;;;4983145;28;20022;-57
2022/05/26 13:05:33;;;;;;;4.50;0.70;;;23.20;99.90;;;;;;4982728;28;20026;-55
2022/05/26 13:07:59;;;;;;;5.95;1.20;;;23.30;99.90;;;;;;4982894;28;20034;-52
2022/05/26 13:10:30;;;;;;;2.00;0.77;;;23.50;99.90;;;;;;4989485;28;20109;-53
2022/05/26 13:12:57;;;;;;;3.70;1.73;;;23.50;99.90;;;;;;4976230;28;20022;-53
2022/05/26 13:15:25;;;;;;;10.10;4.60;;;23.60;99.90;;;;;;4978597;28;20041;-54
2022/05/26 13:17:53;;;;;;;7.72;2.00;;;23.70;99.90;;;;;;4989709;28;20030;-54
2022/05/26 13:20:32;;;;;;;8.07;3.38;;;23.80;99.90;;;;;;4977631;28;20023;-53
2022/05/26 13:22:58;;;;;;;6.97;2.63;;;23.90;99.90;;;;;;4989122;28;20030;-53
2022/05/26 13:25:33;;;;;;;8.70;2.85;;;23.90;99.90;;;;;;4986061;28;20386;-54
2022/05/26 13:28:05;;;;;;;6.43;2.22;;;24.00;99.90;;;;;;4986840;28;20026;-53
2022/05/26 13:33:40;;;;;;;5.57;2.85;;;24.00;99.90;;;;;;4992216;28;20025;-53
2022/05/26 13:36:06;;;;;;;6.85;1.50;;;23.90;99.90;;;;;;4991915;28;20453;-54
2022/05/26 13:38:46;;;;;;;3.90;1.95;;;23.90;99.90;;;;;;4990299;28;20110;-54
2022/05/26 13:41:23;;;;;;;9.30;5.32;;;23.90;99.90;;;;;;4987473;28;20027;-55
2022/05/26 13:43:50;;;;;;;5.93;2.80;;;23.90;99.90;;;;;;4984841;28;20474;-54
2022/05/26 13:46:26;;;;;;;6.30;1.77;;;23.90;99.90;;;;;;4984714;28;20042;-55
2022/05/26 13:48:59;;;;;;;7.47;3.13;;;24.00;99.90;;;;;;4990039;28;20509;-56
2022/05/26 13:51:37;;;;;;;8.20;4.55;;;24.10;99.90;;;;;;4991442;28;20026;-54
2022/05/26 13:54:35;;;;;;;6.78;2.50;;;24.10;99.90;;;;;;4992164;28;20022;-53
2022/05/26 13:57:10;;;;;;;4.43;2.42;;;24.20;99.90;;;;;;4987432;28;20149;-54
2022/05/26 13:59:42;;;;;;;6.68;4.10;;;24.30;99.90;;;;;;4984300;28;20090;-53
2022/05/26 14:02:18;;;;;;;3.75;1.98;;;24.30;99.90;;;;;;4989957;28;20267;-53